createdAt,value
2022-09-26T00:01:45.814Z,100036.63
2022-09-26T00:04:22.907Z,100029.44
2022-09-26T00:06:54.780Z,100040.09
2022-09-26T00:09:25.910Z,100045.28
2022-09-26T00:11:54.355Z,100037.88
2022-09-26T00:14:27.787Z,100043.22
2022-09-26T00:16:56.023Z,100038.78
2022-09-26T00:19:30.169Z,100046.13
2022-09-26T00:21:58.305Z,100026.78
2022-09-26T00:24:26.309Z,100042.56
2022-09-26T00:26:54.282Z,100046.25
2022-09-26T00:29:23.205Z,100050.41
2022-09-26T00:31:51.133Z,100045.47
2022-09-26T00:34:20.609Z,100048.13
2022-09-26T00:36:49.746Z,100043.88
2022-09-26T00:39:17.909Z,100051.59
2022-09-26T00:41:46.279Z,100045.09
2022-09-26T00:44:37.238Z,100056.84
2022-09-26T00:47:08.717Z,100050.47
2022-09-26T00:49:46.130Z,100062.50
2022-09-26T00:52:24.760Z,100021.63
2022-09-26T00:54:58.039Z,100069.28
2022-09-26T00:57:36.423Z,100070.19
2022-09-26T01:00:11.675Z,100054.25
2022-09-26T01:02:40.546Z,100074.63
2022-09-26T01:05:15.485Z,100071.28
2022-09-26T01:07:44.012Z,100080.91
2022-09-26T01:10:12.784Z,100080.25
2022-09-26T01:12:40.808Z,100029.75
2022-09-26T01:15:09.769Z,100077.03
2022-09-26T01:17:44.011Z,100081.38
2022-09-26T01:20:35.971Z,100084.38
2022-09-26T01:23:21.776Z,100084.28
2022-09-26T01:26:14.067Z,100087.72
2022-09-26T01:28:43.895Z,100086.78
2022-09-26T01:31:24.203Z,100091.41
2022-09-26T01:34:04.315Z,100098.06
2022-09-26T01:36:53.980Z,100081.41
2022-09-26T01:39:28.962Z,100100.47
2022-09-26T01:42:43.981Z,100098.63
2022-09-26T01:45:20.125Z,100107.16
2022-09-26T01:48:14.235Z,100106.97
2022-09-26T01:50:46.222Z,100107.97
2022-09-26T01:53:42.838Z,100061.84
2022-09-26T01:56:20.855Z,100110.50
2022-09-26T01:59:05.344Z,100112.69
2022-09-26T02:01:40.940Z,100112.78
2022-09-26T02:04:37.639Z,100123.56
2022-09-26T02:07:31.705Z,100109.31
2022-09-26T02:10:08.752Z,100120.16
2022-09-26T02:12:40.288Z,100113.53
2022-09-26T02:15:12.275Z,100107.97
2022-09-26T02:17:48.357Z,100118.44
2022-09-26T02:20:38.856Z,100124.53
2022-09-26T02:23:07.883Z,100130.13
2022-09-26T02:25:38.416Z,100115.31
2022-09-26T02:28:06.493Z,100112.06
2022-09-26T02:30:35.916Z,100131.03
2022-09-26T02:33:04.069Z,100121.03
2022-09-26T02:35:51.594Z,100131.13
2022-09-26T02:38:19.564Z,100135.88
2022-09-26T02:41:07.116Z,100134.88
2022-09-26T02:43:53.138Z,100135.28
2022-09-26T02:46:46.568Z,100132.53
2022-09-26T02:49:36.570Z,100144.81
2022-09-26T02:52:33.420Z,100149.28
2022-09-26T02:55:22.018Z,100155.94
2022-09-26T02:58:12.441Z,100148.91
2022-09-26T03:00:49.351Z,100149.09
2022-09-26T03:03:39.246Z,100150.00
2022-09-26T03:06:14.229Z,100151.31
2022-09-26T03:08:47.691Z,100163.66
2022-09-26T03:11:22.437Z,100167.63
2022-09-26T03:13:55.357Z,100159.22
2022-09-26T03:16:26.523Z,100157.09
2022-09-26T03:19:04.222Z,100168.13
2022-09-26T03:21:36.192Z,100148.09
2022-09-26T03:24:05.481Z,100147.53
2022-09-26T03:26:35.567Z,100160.59
2022-09-26T03:29:04.520Z,100165.38
2022-09-26T03:31:32.585Z,100160.53
2022-09-26T03:34:00.764Z,100162.69
2022-09-26T03:36:29.405Z,100164.91
2022-09-26T03:38:57.415Z,100166.47
2022-09-26T03:41:26.563Z,100154.91
2022-09-26T03:43:56.926Z,100153.97
2022-09-26T03:46:47.997Z,100164.72
2022-09-26T03:49:16.028Z,100167.31
2022-09-26T03:51:45.126Z,100165.81
2022-09-26T03:54:14.156Z,100167.03
2022-09-26T03:56:42.412Z,100170.66
2022-09-26T03:59:10.403Z,100166.75
2022-09-26T04:01:38.605Z,100170.91
2022-09-26T04:04:06.545Z,100166.47
2022-09-26T04:06:35.286Z,100164.50
2022-09-26T04:09:12.061Z,100166.66
2022-09-26T04:11:44.414Z,100174.72
2022-09-26T04:14:13.619Z,100168.97
2022-09-26T04:16:41.793Z,100174.44
2022-09-26T04:19:10.181Z,100168.03
2022-09-26T04:21:41.863Z,100162.66
2022-09-26T04:24:15.389Z,100162.56
2022-09-26T04:26:47.801Z,100166.47
2022-09-26T04:29:16.098Z,100168.59
2022-09-26T04:31:44.898Z,100178.44
2022-09-26T04:34:14.880Z,100179.34
2022-09-26T04:36:43.410Z,100175.31
2022-09-26T04:39:11.676Z,100178.84
2022-09-26T04:41:40.206Z,100174.09
2022-09-26T04:44:08.228Z,100185.97
2022-09-26T04:47:07.999Z,100191.59
2022-09-26T04:49:35.693Z,100182.53
2022-09-26T04:52:03.610Z,100185.88
2022-09-26T04:54:32.815Z,100188.66
2022-09-26T04:57:20.017Z,100191.78
2022-09-26T04:59:49.353Z,100193.28
2022-09-26T05:02:18.091Z,100178.34
2022-09-26T05:04:48.712Z,100201.81
2022-09-26T05:07:20.366Z,100200.72
2022-09-26T05:09:48.542Z,100204.88
2022-09-26T05:12:18.101Z,100207.19
2022-09-26T05:14:46.428Z,100213.72
2022-09-26T05:17:14.345Z,100214.53
2022-09-26T05:19:43.629Z,100213.81
2022-09-26T05:22:12.916Z,100216.06
2022-09-26T05:24:59.026Z,100215.22
2022-09-26T05:27:27.208Z,100207.63
2022-09-26T05:29:56.952Z,100215.44
2022-09-26T05:32:24.651Z,100217.47
2022-09-26T05:34:53.973Z,100194.00
2022-09-26T05:37:22.006Z,100223.13
2022-09-26T05:40:09.839Z,100222.56
2022-09-26T05:42:38.516Z,100229.50
2022-09-26T05:45:07.130Z,100223.72
2022-09-26T05:47:40.156Z,100225.09
2022-09-26T05:50:11.816Z,100230.78
2022-09-26T05:52:40.314Z,100226.84
2022-09-26T05:55:10.340Z,100221.69
2022-09-26T05:57:39.238Z,100227.19
2022-09-26T06:00:09.485Z,100230.88
2022-09-26T06:02:38.610Z,100189.59
2022-09-26T06:05:06.709Z,100235.00
2022-09-26T06:07:34.974Z,100235.63
2022-09-26T06:10:07.402Z,100231.06
2022-09-26T06:12:35.757Z,100239.91
2022-09-26T06:15:03.735Z,100244.31
2022-09-26T06:17:31.996Z,100242.50
2022-09-26T06:19:59.991Z,100232.75
2022-09-26T06:22:27.951Z,100239.56
2022-09-26T06:24:56.988Z,100229.16
2022-09-26T06:27:43.140Z,100246.34
2022-09-26T06:30:12.534Z,100251.03
2022-09-26T06:32:40.517Z,100235.84
2022-09-26T06:35:08.962Z,100249.16
2022-09-26T06:37:38.994Z,100260.72
2022-09-26T06:40:09.651Z,100243.75
2022-09-26T06:42:51.971Z,100247.06
2022-09-26T06:45:20.061Z,100251.66
2022-09-26T06:47:48.193Z,100260.38
2022-09-26T06:50:16.962Z,100248.94
2022-09-26T06:52:45.011Z,100252.28
2022-09-26T06:55:13.471Z,100252.19
2022-09-26T06:57:44.492Z,100253.94
2022-09-26T07:00:17.185Z,100254.88
2022-09-26T07:02:56.027Z,100258.69
2022-09-26T07:05:25.606Z,100259.09
2022-09-26T07:07:55.687Z,100267.63
2022-09-26T07:10:26.447Z,100262.56
2022-09-26T07:13:03.832Z,100260.91
2022-09-26T07:15:36.802Z,100255.22
2022-09-26T07:18:06.884Z,100265.41
2022-09-26T07:20:40.597Z,100258.22
2022-09-26T07:23:11.623Z,100240.63
2022-09-26T07:25:42.565Z,100255.50
2022-09-26T07:28:11.397Z,100252.72
2022-09-26T07:30:39.650Z,100241.06
2022-09-26T07:33:07.922Z,100251.81
2022-09-26T07:35:38.083Z,100248.50
2022-09-26T07:38:07.859Z,100241.81
2022-09-26T07:40:36.024Z,100235.91
2022-09-26T07:43:19.235Z,100220.06
2022-09-26T07:46:10.816Z,100236.41
2022-09-26T07:48:57.225Z,100235.31
2022-09-26T07:51:25.506Z,100248.66
2022-09-26T07:53:53.687Z,100225.22
2022-09-26T07:56:22.289Z,100235.22
2022-09-26T07:58:50.998Z,100236.44
2022-09-26T08:01:19.867Z,100236.63
2022-09-26T08:03:51.124Z,100244.06
2022-09-26T08:06:24.116Z,100246.63
2022-09-26T08:11:42.887Z,100245.56
2022-09-26T08:14:10.915Z,100237.56
2022-09-26T08:16:42.093Z,100248.28
2022-09-26T08:19:19.448Z,100257.03
2022-09-26T08:21:47.372Z,100253.38
2022-09-26T08:24:15.502Z,100260.47
2022-09-26T08:26:44.761Z,100265.16
2022-09-26T08:29:13.059Z,100270.47
2022-09-26T08:31:41.040Z,100272.00
2022-09-26T08:34:10.343Z,100260.94
2022-09-26T08:36:38.295Z,100266.56
2022-09-26T08:39:06.778Z,100272.91
2022-09-26T08:42:05.096Z,100263.81
2022-09-26T08:44:47.157Z,100278.69
2022-09-26T08:48:00.507Z,100266.66
2022-09-26T08:50:48.514Z,100289.50
2022-09-26T08:53:35.261Z,100289.97
2022-09-26T08:56:14.885Z,100293.41
2022-09-26T08:58:52.993Z,100290.09
2022-09-26T09:01:30.196Z,100298.97
2022-09-26T09:04:20.196Z,100295.41
2022-09-26T09:06:50.322Z,100299.47
2022-09-26T09:09:19.017Z,100291.47
2022-09-26T09:12:11.998Z,100290.34
2022-09-26T09:15:24.622Z,100287.53
2022-09-26T09:18:15.031Z,100291.06
2022-09-26T09:20:57.527Z,100301.38
2022-09-26T09:23:41.910Z,100304.63
2022-09-26T09:29:49.432Z,100316.69
2022-09-26T09:32:22.580Z,100316.41
2022-09-26T09:35:22.035Z,100310.47
2022-09-26T09:37:55.681Z,100307.75
2022-09-26T09:40:49.312Z,100308.34
2022-09-26T09:43:41.868Z,100313.75
2022-09-26T09:46:29.759Z,100308.06
2022-09-26T09:49:15.631Z,100312.13
2022-09-26T09:52:05.924Z,100309.66
2022-09-26T09:54:36.890Z,100311.78
2022-09-26T09:57:41.028Z,100320.84
2022-09-26T10:00:12.370Z,100322.56
2022-09-26T10:02:49.635Z,100326.75
2022-09-26T10:05:17.876Z,100327.47
2022-09-26T10:07:47.694Z,100325.28
2022-09-26T10:10:23.925Z,100323.84
2022-09-26T10:12:54.204Z,100319.41
2022-09-26T10:15:26.822Z,100318.25
2022-09-26T10:18:24.132Z,100325.69
2022-09-26T10:21:07.378Z,100341.84
2022-09-26T10:23:44.259Z,100332.38
2022-09-26T10:26:14.381Z,100330.41
2022-09-26T10:28:58.482Z,100333.75
2022-09-26T10:31:30.729Z,100331.25
2022-09-26T10:34:06.543Z,100328.94
2022-09-26T10:36:42.874Z,100335.25
2022-09-26T10:39:40.745Z,100299.25
2022-09-26T10:42:35.988Z,100322.53
2022-09-26T10:45:19.057Z,100312.31
2022-09-26T10:47:51.864Z,100323.94
2022-09-26T10:50:28.786Z,100338.03
2022-09-26T10:53:11.817Z,100334.69
2022-09-26T10:55:59.634Z,100334.69
2022-09-26T10:59:22.849Z,100332.09
2022-09-26T11:02:22.383Z,100336.25
2022-09-26T11:05:17.746Z,100340.06
2022-09-26T11:07:51.153Z,100336.91
2022-09-26T11:10:28.028Z,100325.03
2022-09-26T11:13:18.904Z,100340.44
2022-09-26T11:16:15.332Z,100337.94
2022-09-26T11:18:46.976Z,100337.94
2022-09-26T11:21:36.229Z,100338.66
2022-09-26T11:24:24.929Z,100337.28
2022-09-26T11:27:27.535Z,100329.03
2022-09-26T11:30:12.472Z,100288.69
2022-09-26T11:32:44.646Z,100333.66
2022-09-26T11:35:22.709Z,100339.41
2022-09-26T11:38:29.319Z,100341.84
2022-09-26T11:41:36.985Z,100334.06
2022-09-26T11:44:36.623Z,100335.34
2022-09-26T11:47:23.314Z,100335.34
2022-09-26T11:50:18.334Z,100348.31
2022-09-26T11:53:29.163Z,100343.88
2022-09-26T11:56:08.029Z,100363.63
2022-09-26T11:58:46.173Z,100358.44
2022-09-26T12:01:24.001Z,100367.81
2022-09-26T12:04:12.757Z,100366.22
2022-09-26T12:07:03.158Z,100376.63
2022-09-26T12:10:05.908Z,100363.81
2022-09-26T12:12:43.862Z,100375.13
2022-09-26T12:15:32.627Z,100378.44
2022-09-26T12:18:16.598Z,100382.16
2022-09-26T12:21:10.906Z,100374.44
2022-09-26T12:23:59.844Z,100360.47
2022-09-26T12:27:00.960Z,100363.81
2022-09-26T12:30:12.204Z,100367.44
2022-09-26T12:32:57.282Z,100347.50
2022-09-26T12:35:36.751Z,100357.22
2022-09-26T12:38:29.626Z,100342.22
2022-09-26T12:41:21.780Z,100346.31
2022-09-26T12:44:29.031Z,100341.94
2022-09-26T12:47:27.980Z,100341.66
2022-09-26T12:50:08.467Z,100330.88
2022-09-26T12:52:51.315Z,100329.03
2022-09-26T12:55:33.930Z,100321.53
2022-09-26T12:58:25.680Z,100318.75
2022-09-26T13:01:12.525Z,100312.53
2022-09-26T13:04:23.506Z,100314.78
2022-09-26T13:07:20.494Z,100303.94
2022-09-26T13:10:17.738Z,100304.69
2022-09-26T13:13:07.976Z,100303.91
2022-09-26T13:15:54.719Z,100308.94
2022-09-26T13:18:34.635Z,100309.09
2022-09-26T13:21:10.055Z,100306.13
2022-09-26T13:23:58.557Z,100306.09
2022-09-26T13:26:36.423Z,100308.34
2022-09-26T13:29:17.709Z,100309.00
2022-09-26T13:31:50.687Z,100300.09
2022-09-26T13:34:29.021Z,100302.88
2022-09-26T13:37:00.253Z,100302.97
2022-09-26T13:39:44.148Z,100303.91
2022-09-26T13:42:49.446Z,100296.09
2022-09-26T13:45:30.069Z,100304.47
2022-09-26T13:48:09.241Z,100288.84
2022-09-26T13:50:56.208Z,100285.25
2022-09-26T13:53:58.385Z,100303.91
2022-09-26T13:56:36.668Z,100303.16
2022-09-26T13:59:27.956Z,100300.38
2022-09-26T14:02:30.820Z,100298.63
2022-09-26T14:05:04.781Z,100300.94
2022-09-26T14:08:01.545Z,100304.28
2022-09-26T14:10:39.862Z,100297.16
2022-09-26T14:13:22.728Z,100295.97
2022-09-26T14:15:58.228Z,100299.66
2022-09-26T14:18:56.426Z,100299.75
2022-09-26T14:21:37.974Z,100293.72
2022-09-26T14:24:21.202Z,100294.28
2022-09-26T14:27:13.254Z,100286.78
2022-09-26T14:29:43.217Z,100291.41
2022-09-26T14:32:33.131Z,100292.22
2022-09-26T14:35:05.420Z,100286.47
2022-09-26T14:37:35.210Z,100290.47
2022-09-26T14:40:08.961Z,100301.69
2022-09-26T14:42:45.825Z,100301.50
2022-09-26T14:45:22.324Z,100295.00
2022-09-26T14:48:07.137Z,100305.38
2022-09-26T14:50:45.013Z,100288.50
2022-09-26T14:53:38.755Z,100294.53
2022-09-26T14:56:13.137Z,100284.06
2022-09-26T14:58:41.038Z,100283.03
2022-09-26T15:01:34.917Z,100292.78
2022-09-26T15:04:17.085Z,100287.19
2022-09-26T15:06:50.362Z,100296.19
2022-09-26T15:09:26.848Z,100286.47
2022-09-26T15:12:12.089Z,100292.41
2022-09-26T15:14:48.767Z,100285.25
2022-09-26T15:17:27.014Z,100253.66
2022-09-26T15:20:00.207Z,100291.13
2022-09-26T15:22:31.882Z,100297.06
2022-09-26T15:25:32.758Z,100298.25
2022-09-26T15:28:02.552Z,100296.41
2022-09-26T15:30:34.225Z,100298.25
2022-09-26T15:33:06.753Z,100303.34
2022-09-26T15:35:34.805Z,100300.25
2022-09-26T15:38:10.156Z,100306.47
2022-09-26T15:40:38.263Z,100301.44
2022-09-26T15:43:25.797Z,100306.06
2022-09-26T15:45:59.290Z,100292.44
2022-09-26T15:48:33.104Z,100294.19
2022-09-26T15:51:24.338Z,100285.66
2022-09-26T15:54:00.358Z,100291.59
2022-09-26T15:56:28.302Z,100286.59
2022-09-26T15:59:09.287Z,100291.94
2022-09-26T16:01:43.199Z,100285.09
2022-09-26T16:04:30.491Z,100294.44
2022-09-26T16:07:21.417Z,100295.13
2022-09-26T16:09:52.973Z,100288.34
2022-09-26T16:12:25.938Z,100281.56
2022-09-26T16:15:09.657Z,100287.34
2022-09-26T16:17:38.088Z,100279.97
2022-09-26T16:20:32.601Z,100287.06
2022-09-26T16:25:51.846Z,100289.09
2022-09-26T16:28:40.805Z,100287.44
2022-09-26T16:31:14.122Z,100281.31
2022-09-26T16:33:43.225Z,100287.00
2022-09-26T16:36:20.252Z,100275.13
2022-09-26T16:38:57.303Z,100284.25
2022-09-26T16:42:00.105Z,100284.44
2022-09-26T16:44:35.396Z,100280.06
2022-09-26T16:47:07.950Z,100275.72
2022-09-26T16:49:48.573Z,100280.16
2022-09-26T16:52:37.415Z,100280.00
2022-09-26T16:55:07.501Z,100284.09
2022-09-26T16:57:48.971Z,100273.78
2022-09-26T17:00:41.434Z,100273.78
2022-09-26T17:03:27.557Z,100270.38
2022-09-26T17:05:57.878Z,100278.91
2022-09-26T17:08:28.028Z,100272.88
2022-09-26T17:11:03.127Z,100274.28
2022-09-26T17:13:36.693Z,100271.88
2022-09-26T17:16:05.104Z,100257.00
2022-09-26T17:18:34.430Z,100264.25
2022-09-26T17:21:06.530Z,100263.44
2022-09-26T17:23:41.471Z,100257.66
2022-09-26T17:26:20.781Z,100251.16
2022-09-26T17:28:49.972Z,100250.69
2022-09-26T17:31:22.692Z,100249.97
2022-09-26T17:33:55.039Z,100250.41
2022-09-26T17:36:28.604Z,100241.06
2022-09-26T17:39:00.034Z,100244.56
2022-09-26T17:41:30.572Z,100238.97
2022-09-26T17:44:01.549Z,100241.41
2022-09-26T17:46:30.198Z,100223.50
2022-09-26T17:49:00.972Z,100231.69
2022-09-26T17:51:29.851Z,100237.63
2022-09-26T17:53:58.056Z,100240.97
2022-09-26T17:56:27.157Z,100233.38
2022-09-26T17:58:56.165Z,100221.09
2022-09-26T18:01:35.947Z,100220.94
2022-09-26T18:04:13.370Z,100227.19
2022-09-26T18:06:43.677Z,100216.66
2022-09-26T18:09:18.866Z,100214.91
2022-09-26T18:11:57.946Z,100211.75
2022-09-26T18:14:27.845Z,100206.56
2022-09-26T18:16:55.868Z,100190.78
2022-09-26T18:19:23.892Z,100199.22
2022-09-26T18:21:57.637Z,100189.13
2022-09-26T18:24:28.678Z,100192.28
2022-09-26T18:27:04.047Z,100187.53
2022-09-26T18:29:36.617Z,100191.22
2022-09-26T18:32:12.753Z,100191.28
2022-09-26T18:34:42.061Z,100187.78
2022-09-26T18:37:10.116Z,100194.63
2022-09-26T18:39:38.076Z,100193.13
2022-09-26T18:42:13.646Z,100183.34
2022-09-26T18:44:43.339Z,100185.59
2022-09-26T18:47:16.680Z,100191.28
2022-09-26T18:49:48.068Z,100181.84
2022-09-26T18:52:18.426Z,100185.25
2022-09-26T18:54:47.017Z,100186.84
2022-09-26T18:57:33.484Z,100172.06
2022-09-26T19:00:03.756Z,100176.06
2022-09-26T19:02:38.968Z,100182.75
2022-09-26T19:05:11.146Z,100188.78
2022-09-26T19:07:40.993Z,100144.91
2022-09-26T19:10:19.129Z,100181.09
2022-09-26T19:12:47.503Z,100179.75
2022-09-26T19:15:18.171Z,100175.25
2022-09-26T19:17:46.222Z,100176.81
2022-09-26T19:20:14.500Z,100181.16
2022-09-26T19:22:42.676Z,100160.72
2022-09-26T19:25:11.235Z,100167.31
2022-09-26T19:27:57.894Z,100156.94
2022-09-26T19:30:27.698Z,100159.53
2022-09-26T19:32:57.725Z,100158.22
2022-09-26T19:35:32.331Z,100158.22
2022-09-26T19:38:01.717Z,100152.19
2022-09-26T19:40:30.270Z,100150.00
2022-09-26T19:42:58.656Z,100154.34
2022-09-26T19:45:32.215Z,100150.75
2022-09-26T19:48:00.603Z,100156.75
2022-09-26T19:50:30.616Z,100148.91
2022-09-26T19:53:05.331Z,100152.41
2022-09-26T19:55:33.437Z,100155.09
2022-09-26T19:58:25.243Z,100158.59
2022-09-26T20:00:55.829Z,100147.31
2022-09-26T20:03:30.370Z,100158.44
2022-09-26T20:05:58.694Z,100148.00
2022-09-26T20:08:28.006Z,100146.06
2022-09-26T20:10:57.226Z,100143.28
2022-09-26T20:13:26.986Z,100150.06
2022-09-26T20:15:56.625Z,100145.78
2022-09-26T20:18:25.439Z,100132.84
2022-09-26T20:20:56.671Z,100134.34
2022-09-26T20:23:28.232Z,100125.66
2022-09-26T20:25:56.669Z,100117.78
2022-09-26T20:28:25.747Z,100114.34
2022-09-26T20:30:56.164Z,100110.00
2022-09-26T20:33:26.872Z,100116.78
2022-09-26T20:36:03.331Z,100107.34
2022-09-26T20:38:39.154Z,100102.91
2022-09-26T20:41:31.952Z,100096.03
2022-09-26T20:44:05.607Z,100107.25
2022-09-26T20:46:38.930Z,100104.66
2022-09-26T20:49:13.754Z,100103.81
2022-09-26T20:51:41.839Z,100106.41
2022-09-26T20:54:27.369Z,100106.59
2022-09-26T20:56:59.393Z,100102.31
2022-09-26T20:59:28.428Z,100091.88
2022-09-26T21:01:58.198Z,100081.13
2022-09-26T21:04:32.726Z,100085.03
2022-09-26T21:07:00.745Z,100087.53
2022-09-26T21:09:29.769Z,100090.94
2022-09-26T21:11:57.689Z,100092.97
2022-09-26T21:14:26.690Z,100081.13
2022-09-26T21:16:56.454Z,100082.78
2022-09-26T21:19:25.849Z,100082.78
2022-09-26T21:21:53.859Z,100082.88
2022-09-26T21:24:32.745Z,100083.97
2022-09-26T21:27:00.710Z,100088.25
2022-09-26T21:29:28.760Z,100078.16
2022-09-26T21:32:04.449Z,100094.25
2022-09-26T21:34:34.428Z,100095.09
2022-09-26T21:37:04.456Z,100056.03
2022-09-26T21:39:33.946Z,100098.88
2022-09-26T21:42:05.269Z,100093.50
2022-09-26T21:44:47.981Z,100089.41
2022-09-26T21:47:16.156Z,100088.31
2022-09-26T21:49:44.392Z,100089.06
2022-09-26T21:52:19.866Z,100073.97
2022-09-26T21:54:48.254Z,100073.06
2022-09-26T21:57:29.978Z,100091.84
2022-09-26T21:59:59.525Z,100086.66
2022-09-26T22:02:28.363Z,100087.50
2022-09-26T22:04:56.512Z,100086.56
2022-09-26T22:07:24.426Z,100077.88
2022-09-26T22:09:52.381Z,100083.06
2022-09-26T22:12:21.585Z,100070.94
2022-09-26T22:14:49.732Z,100065.94
2022-09-26T22:17:19.254Z,100063.16
2022-09-26T22:19:48.474Z,100058.91
2022-09-26T22:22:18.049Z,100052.81
2022-09-26T22:24:46.429Z,100042.53
2022-09-26T22:27:16.919Z,100048.53
2022-09-26T22:29:45.093Z,100045.31
2022-09-26T22:32:13.963Z,100012.94
2022-09-26T22:34:42.111Z,100060.09
2022-09-26T22:37:10.233Z,100051.31
2022-09-26T22:39:38.228Z,100064.28
2022-09-26T22:42:07.620Z,100056.84
2022-09-26T22:44:36.665Z,100046.00
2022-09-26T22:47:04.942Z,100039.34
2022-09-26T22:49:34.171Z,100051.03
2022-09-26T22:52:02.219Z,100050.09
2022-09-26T22:54:30.089Z,100035.00
2022-09-26T22:56:59.079Z,100035.19
2022-09-26T22:59:27.105Z,100044.34
2022-09-26T23:01:57.931Z,100045.34
2022-09-26T23:04:47.411Z,100041.59
2022-09-26T23:07:16.624Z,100034.47
2022-09-26T23:09:45.126Z,100042.25
2022-09-26T23:12:15.818Z,100021.53
2022-09-26T23:14:43.801Z,100035.47
2022-09-26T23:17:11.955Z,100026.78
2022-09-26T23:19:41.100Z,100023.44
2022-09-26T23:22:09.120Z,100024.66
2022-09-26T23:24:37.033Z,100015.13
2022-09-26T23:27:06.718Z,100009.19
2022-09-26T23:29:53.016Z,100005.88
2022-09-26T23:32:21.272Z,100011.09
2022-09-26T23:34:49.296Z,100004.25
2022-09-26T23:37:17.246Z,99997.31
2022-09-26T23:39:47.687Z,99995.56
2022-09-26T23:42:15.755Z,100001.56
2022-09-26T23:44:43.717Z,100000.81
2022-09-26T23:47:11.849Z,99977.69
2022-09-26T23:49:39.870Z,99988.06
2022-09-26T23:52:07.791Z,99981.13
2022-09-26T23:54:35.842Z,99977.97
2022-09-26T23:57:03.813Z,99981.97
2022-09-26T23:59:31.935Z,99962.63
